Time;durP1;ratioP1;P1;durP2;ratioP2;P2;SDS_P1;SDS_P2;PMS_P1;PMS_P2;Temp;Humidity;BMP_temperature;BMP_pressure;BME280_temperature;BME280_humidity;BME280_pressure;Samples;Min_cycle;Max_cycle;Signal;HPM_P1;HPM_P2
2021/07/25 00:00:12;;;;;;;9.10;7.10;;;18.10;66.50;;;;;;4972231;28;20202;-88
2021/07/25 00:02:37;;;;;;;8.70;6.73;;;18.10;66.20;;;;;;4975164;28;20189;-88
2021/07/25 00:05:05;;;;;;;10.20;7.50;;;18.10;66.20;;;;;;4964819;28;20235;-88
2021/07/25 00:07:31;;;;;;;7.00;6.30;;;18.00;69.20;;;;;;4968943;28;20215;-88
2021/07/25 00:09:57;;;;;;;10.07;7.30;;;18.00;70.20;;;;;;4969064;28;20742;-88
2021/07/25 00:12:22;;;;;;;8.87;7.83;;;18.00;71.00;;;;;;4974815;28;20657;-89
2021/07/25 00:14:48;;;;;;;9.50;7.00;;;18.00;70.50;;;;;;4977479;28;20240;-88
2021/07/25 00:17:14;;;;;;;8.60;6.87;;;18.00;70.30;;;;;;4966438;28;20196;-87
2021/07/25 00:19:39;;;;;;;8.27;7.13;;;18.10;68.70;;;;;;4965596;28;20205;-88
2021/07/25 00:22:06;;;;;;;10.00;7.73;;;18.10;66.00;;;;;;4968063;28;20676;-89
2021/07/25 00:24:37;;;;;;;9.40;7.07;;;18.10;64.90;;;;;;4963944;28;20186;-88
2021/07/25 00:27:04;;;;;;;7.53;6.47;;;18.10;65.50;;;;;;4979794;28;20200;-88
2021/07/25 00:29:31;;;;;;;9.17;8.10;;;18.20;67.00;;;;;;4972206;28;20184;-89
2021/07/25 00:32:05;;;;;;;7.87;7.00;;;18.20;64.00;;;;;;4966741;28;20215;-90
2021/07/25 00:34:32;;;;;;;9.50;7.60;;;18.20;64.50;;;;;;4984797;28;20309;-90
2021/07/25 00:36:58;;;;;;;9.77;6.93;;;;;;;;;;4976505;28;20173;-89
2021/07/25 00:39:25;;;;;;;9.10;7.63;;;18.30;61.90;;;;;;4984176;28;20642;-87
2021/07/25 00:41:51;;;;;;;7.57;6.70;;;18.30;61.50;;;;;;4973427;28;20193;-89
2021/07/25 00:44:17;;;;;;;9.00;6.77;;;;;;;;;;4970745;28;21137;-88
2021/07/25 00:46:45;;;;;;;8.20;6.70;;;18.30;61.80;;;;;;4980131;28;20192;-89
2021/07/25 00:49:14;;;;;;;11.47;7.50;;;18.40;62.60;;;;;;4971897;28;20201;-89
2021/07/25 00:51:40;;;;;;;8.77;7.37;;;;;;;;;;4971965;28;20209;-88
2021/07/25 00:54:06;;;;;;;7.83;6.53;;;18.50;62.10;;;;;;4966485;28;20617;-88
2021/07/25 00:56:32;;;;;;;8.80;6.77;;;18.50;62.10;;;;;;4961255;28;20186;-87
2021/07/25 00:58:58;;;;;;;8.60;6.83;;;18.50;59.20;;;;;;4965705;28;20224;-88
2021/07/25 01:01:24;;;;;;;8.80;7.10;;;18.50;59.20;;;;;;4977962;28;20211;-88
2021/07/25 01:04:10;;;;;;;8.63;6.70;;;18.40;59.30;;;;;;4966144;28;20280;-87
2021/07/25 01:06:47;;;;;;;8.63;6.73;;;16.80;57.70;;;;;;4982443;28;20570;-88
2021/07/25 01:09:19;;;;;;;8.27;7.27;;;18.40;56.70;;;;;;4980472;28;20210;-88
2021/07/25 01:11:45;;;;;;;8.37;6.63;;;;;;;;;;4967137;28;20212;-88
2021/07/25 01:14:16;;;;;;;10.00;6.80;;;18.40;52.30;;;;;;4967233;28;20187;-88
2021/07/25 01:16:41;;;;;;;6.97;6.17;;;18.40;53.70;;;;;;4967629;28;20705;-88
2021/07/25 01:19:07;;;;;;;10.50;6.50;;;18.50;52.50;;;;;;4969474;28;20223;-87
2021/07/25 01:21:33;;;;;;;8.50;6.57;;;18.50;52.70;;;;;;4970471;28;20283;-87
2021/07/25 01:23:59;;;;;;;9.20;6.77;;;18.50;53.50;;;;;;4966207;28;20198;-88
2021/07/25 01:26:29;;;;;;;8.90;6.07;;;18.40;53.90;;;;;;4960446;28;20211;-87
2021/07/25 01:28:56;;;;;;;7.20;6.33;;;18.20;55.50;;;;;;4978699;28;20226;-88
2021/07/25 01:31:37;;;;;;;10.00;6.77;;;18.30;64.30;;;;;;4967248;28;20298;-88
2021/07/25 01:34:04;;;;;;;9.33;6.43;;;18.40;63.30;;;;;;4967286;28;20224;-88
2021/07/25 01:36:30;;;;;;;9.57;6.93;;;;;;;;;;4983095;28;20202;-89
2021/07/25 01:38:56;;;;;;;10.37;6.87;;;18.20;64.20;;;;;;4980488;28;20212;-88
2021/07/25 01:41:22;;;;;;;8.00;6.90;;;18.10;66.80;;;;;;4975050;28;20173;-89
2021/07/25 01:43:50;;;;;;;10.23;7.20;;;18.00;68.00;;;;;;4962960;28;20211;-89
2021/07/25 01:46:16;;;;;;;8.53;7.07;;;16.40;67.60;;;;;;4964506;28;20185;-88
2021/07/25 01:48:43;;;;;;;8.87;7.10;;;18.00;67.80;;;;;;4983349;28;20188;-90
2021/07/25 01:51:11;;;;;;;8.27;6.43;;;17.90;68.90;;;;;;4965096;28;20220;-89
2021/07/25 01:53:37;;;;;;;6.33;5.73;;;17.90;70.40;;;;;;4979269;28;20232;-90
2021/07/25 01:56:03;;;;;;;7.83;6.73;;;17.90;69.70;;;;;;4967029;28;20203;-89
2021/07/25 01:58:29;;;;;;;8.97;6.50;;;17.90;71.00;;;;;;4964681;28;20225;-89
2021/07/25 02:00:55;;;;;;;7.93;6.40;;;17.90;70.90;;;;;;4952240;28;20298;-89
2021/07/25 02:03:21;;;;;;;9.97;6.50;;;17.90;69.10;;;;;;4969067;28;20690;-89
2021/07/25 02:05:54;;;;;;;7.37;5.93;;;17.90;68.10;;;;;;4973278;28;20188;-89
2021/07/25 02:08:20;;;;;;;7.43;6.63;;;17.90;68.60;;;;;;4965260;28;20664;-89
2021/07/25 02:10:47;;;;;;;8.03;7.07;;;17.80;68.90;;;;;;4975658;28;20227;-89
2021/07/25 02:13:14;;;;;;;8.27;6.70;;;17.70;70.80;;;;;;4975323;28;20280;-88
2021/07/25 02:15:41;;;;;;;9.67;6.87;;;17.70;72.30;;;;;;4976212;28;20215;-89
2021/07/25 02:18:07;;;;;;;7.83;7.03;;;17.70;72.70;;;;;;4980979;28;20192;-90
2021/07/25 02:20:34;;;;;;;11.20;8.03;;;17.70;72.40;;;;;;4991634;28;20258;-88
2021/07/25 02:23:00;;;;;;;9.20;7.00;;;;;;;;;;4978672;28;20539;-88
2021/07/25 02:25:26;;;;;;;10.03;7.87;;;17.70;72.00;;;;;;4988200;28;20305;-89
2021/07/25 02:27:52;;;;;;;10.50;8.53;;;17.60;73.40;;;;;;4975375;28;20202;-87
2021/07/25 02:30:18;;;;;;;8.60;7.17;;;17.80;72.80;;;;;;4973936;28;20324;-89
2021/07/25 02:32:43;;;;;;;9.00;7.30;;;17.80;70.30;;;;;;4988890;28;20227;-90
2021/07/25 02:35:09;;;;;;;8.50;7.03;;;17.80;70.90;;;;;;4970561;28;20211;-89
2021/07/25 02:37:35;;;;;;;7.80;7.00;;;17.70;72.60;;;;;;4983116;28;20197;-88
2021/07/25 02:40:01;;;;;;;9.03;7.97;;;17.70;72.60;;;;;;4976704;28;20193;-88
2021/07/25 02:42:27;;;;;;;7.37;6.67;;;17.70;73.50;;;;;;4970025;28;20188;-89
2021/07/25 02:44:53;;;;;;;8.40;7.17;;;;;;;;;;4968530;28;20218;-88
2021/07/25 02:47:18;;;;;;;10.83;7.07;;;17.70;70.80;;;;;;4961821;28;20740;-88
2021/07/25 02:49:44;;;;;;;11.47;7.50;;;17.60;71.30;;;;;;4974473;28;20283;-88
2021/07/25 02:52:10;;;;;;;9.23;7.23;;;17.50;72.30;;;;;;4968408;28;20251;-89
2021/07/25 02:54:36;;;;;;;8.47;7.03;;;17.60;70.70;;;;;;4971862;28;20636;-89
2021/07/25 02:57:02;;;;;;;8.73;7.47;;;17.40;70.10;;;;;;4984196;28;20364;-88
2021/07/25 02:59:28;;;;;;;8.43;7.40;;;17.50;71.20;;;;;;4977557;28;20202;-88
2021/07/25 03:01:54;;;;;;;8.00;7.10;;;17.40;72.60;;;;;;4988716;28;20195;-87
2021/07/25 03:04:20;;;;;;;8.73;7.83;;;17.40;72.90;;;;;;4975069;28;20216;-87
2021/07/25 03:06:45;;;;;;;11.47;7.77;;;17.40;70.80;;;;;;4976035;28;20229;-88
2021/07/25 03:09:11;;;;;;;8.37;7.53;;;17.40;71.20;;;;;;4973477;28;20200;-89
2021/07/25 03:11:39;;;;;;;9.47;7.17;;;17.30;72.60;;;;;;4974454;28;20301;-89
2021/07/25 03:14:05;;;;;;;9.43;7.00;;;17.40;72.60;;;;;;4964853;28;20206;-89
2021/07/25 03:16:31;;;;;;;8.77;6.40;;;;;;;;;;4981537;28;20214;-88
2021/07/25 03:18:57;;;;;;;8.50;7.07;;;17.30;72.30;;;;;;4967912;28;20191;-90
2021/07/25 03:21:23;;;;;;;8.50;6.93;;;17.30;74.10;;;;;;4971890;28;20249;-88
2021/07/25 03:23:48;;;;;;;8.50;6.53;;;17.40;74.80;;;;;;4969902;28;20296;-88
2021/07/25 03:26:14;;;;;;;8.70;7.17;;;17.30;73.30;;;;;;4964476;28;20223;-89
2021/07/25 03:28:39;;;;;;;8.23;7.20;;;17.20;74.10;;;;;;4967120;28;20200;-88
2021/07/25 03:31:05;;;;;;;7.97;6.70;;;17.20;75.40;;;;;;4968611;28;20218;-88
2021/07/25 03:33:31;;;;;;;9.10;6.77;;;17.10;75.80;;;;;;4969495;28;20181;-90
2021/07/25 03:35:57;;;;;;;7.67;6.57;;;;;;;;;;4967613;28;20658;-88
2021/07/25 03:38:23;;;;;;;8.20;6.80;;;17.10;77.30;;;;;;4982743;28;20286;-90
2021/07/25 03:40:48;;;;;;;9.53;7.07;;;17.10;78.30;;;;;;4980952;28;20235;-89
2021/07/25 03:43:14;;;;;;;10.20;7.70;;;17.10;78.20;;;;;;4978048;28;20198;-89
2021/07/25 03:45:42;;;;;;;10.43;7.93;;;17.10;77.90;;;;;;4986949;28;20200;-88
2021/07/25 03:48:08;;;;;;;8.30;7.43;;;17.10;78.40;;;;;;4982212;28;20200;-89
2021/07/25 03:50:34;;;;;;;9.77;7.63;;;17.20;78.50;;;;;;4982486;28;20223;-89
2021/07/25 03:53:00;;;;;;;14.10;9.20;;;17.20;80.00;;;;;;4965585;28;20624;-88
2021/07/25 03:55:26;;;;;;;12.93;10.30;;;;;;;;;;4975224;28;20234;-87
2021/07/25 03:57:53;;;;;;;13.53;11.07;;;17.40;73.40;;;;;;4977997;28;20650;-86
2021/07/25 04:00:19;;;;;;;13.97;9.93;;;17.40;74.20;;;;;;4966540;28;20622;-88
2021/07/25 04:02:45;;;;;;;11.07;9.90;;;17.40;74.30;;;;;;4972669;28;20189;-88
2021/07/25 04:05:11;;;;;;;12.10;10.23;;;17.40;75.40;;;;;;4967326;28;20246;-88
2021/07/25 04:07:37;;;;;;;12.27;9.43;;;17.50;76.30;;;;;;4964988;28;20195;-88
2021/07/25 04:10:03;;;;;;;11.70;8.93;;;17.50;76.10;;;;;;4986342;28;20655;-90
2021/07/25 04:12:29;;;;;;;9.77;8.67;;;17.50;76.30;;;;;;4961943;28;20198;-89
2021/07/25 04:14:54;;;;;;;10.20;8.03;;;17.50;75.10;;;;;;4966357;28;20285;-89
2021/07/25 04:17:20;;;;;;;10.73;8.43;;;;;;;;;;4977408;28;20264;-89
2021/07/25 04:19:46;;;;;;;11.53;9.43;;;17.60;78.70;;;;;;4965061;28;20198;-89
2021/07/25 04:22:12;;;;;;;14.57;10.67;;;17.60;78.70;;;;;;4978055;28;20662;-89
2021/07/25 04:24:37;;;;;;;16.43;11.40;;;17.70;81.20;;;;;;4970394;28;20196;-89
2021/07/25 04:27:03;;;;;;;13.50;11.00;;;17.80;81.40;;;;;;4958301;28;20207;-89
2021/07/25 04:29:29;;;;;;;14.83;10.97;;;17.90;82.40;;;;;;4974086;28;20568;-89
2021/07/25 04:31:55;;;;;;;14.60;11.57;;;17.90;82.10;;;;;;4967080;28;20217;-88
2021/07/25 04:34:23;;;;;;;15.77;10.90;;;17.90;83.20;;;;;;4986856;28;20215;-89
2021/07/25 04:36:49;;;;;;;18.67;12.60;;;18.00;83.90;;;;;;4986582;28;20185;-89
2021/07/25 04:39:15;;;;;;;15.30;12.27;;;18.00;83.80;;;;;;4965773;28;20214;-89
2021/07/25 04:41:45;;;;;;;22.57;14.23;;;18.10;82.10;;;;;;4982509;28;20290;-89
2021/07/25 04:44:22;;;;;;;18.00;13.93;;;18.20;80.30;;;;;;4971266;28;20248;-88
2021/07/25 04:46:51;;;;;;;19.40;13.70;;;18.20;80.90;;;;;;4979061;28;20195;-88
2021/07/25 04:49:19;;;;;;;18.63;13.00;;;18.20;80.20;;;;;;4970709;28;20222;-88
2021/07/25 04:51:46;;;;;;;18.47;13.37;;;18.30;81.10;;;;;;4975804;28;20232;-88
2021/07/25 04:54:17;;;;;;;20.13;13.33;;;18.30;79.40;;;;;;4970347;28;20327;-89
2021/07/25 04:56:58;;;;;;;16.67;12.23;;;18.30;79.40;;;;;;4966966;28;20661;-88
2021/07/25 04:59:51;;;;;;;14.90;11.30;;;18.30;75.70;;;;;;4965936;28;20202;-88
2021/07/25 05:02:19;;;;;;;18.00;11.33;;;18.30;73.40;;;;;;4969809;28;20207;-89
2021/07/25 05:04:48;;;;;;;14.13;10.63;;;18.40;72.90;;;;;;4971804;28;20759;-89
2021/07/25 05:07:14;;;;;;;13.53;10.60;;;;;;;;;;4968454;28;20193;-88
2021/07/25 05:09:41;;;;;;;15.80;12.30;;;18.50;72.30;;;;;;4987947;28;20191;-88
2021/07/25 05:12:18;;;;;;;16.43;13.00;;;18.40;73.10;;;;;;4971587;28;20253;-88
2021/07/25 05:14:53;;;;;;;18.80;12.83;;;18.60;73.60;;;;;;4955795;28;20185;-88
2021/07/25 05:18:04;;;;;;;19.33;13.17;;;18.70;71.20;;;;;;4979292;28;20603;-87
2021/07/25 05:20:42;;;;;;;18.77;12.90;;;18.80;67.40;;;;;;4961521;28;20205;-87
2021/07/25 05:23:09;;;;;;;19.03;14.17;;;;;;;;;;4985066;28;20214;-88
2021/07/25 05:25:38;;;;;;;18.57;12.53;;;18.90;67.50;;;;;;4981172;28;20205;-87
2021/07/25 05:28:06;;;;;;;19.10;13.23;;;18.80;67.90;;;;;;4965891;28;20208;-88
2021/07/25 05:30:32;;;;;;;16.77;12.30;;;18.90;66.70;;;;;;4968108;28;20223;-87
2021/07/25 05:32:57;;;;;;;17.03;12.33;;;18.90;67.00;;;;;;4974103;28;20194;-87
2021/07/25 05:35:23;;;;;;;18.83;12.30;;;18.90;65.60;;;;;;4966322;28;20204;-86
2021/07/25 05:37:49;;;;;;;18.70;12.30;;;18.90;66.70;;;;;;4960799;28;20207;-88
2021/07/25 05:40:15;;;;;;;19.33;13.20;;;18.90;68.70;;;;;;4972340;28;20199;-89
2021/07/25 05:42:42;;;;;;;16.83;11.90;;;19.00;68.90;;;;;;4974718;28;20200;-89
2021/07/25 05:45:09;;;;;;;23.23;13.80;;;19.00;67.70;;;;;;4971076;28;20196;-89
2021/07/25 05:47:36;;;;;;;23.77;14.27;;;19.00;66.80;;;;;;4967735;28;20543;-89
2021/07/25 05:50:02;;;;;;;19.63;13.30;;;19.00;67.40;;;;;;4960528;28;20191;-90
2021/07/25 05:52:40;;;;;;;22.23;14.60;;;19.10;68.70;;;;;;4966414;28;20580;-87
2021/07/25 05:55:06;;;;;;;24.87;13.70;;;19.20;63.90;;;;;;4971703;28;20197;-88
2021/07/25 05:57:31;;;;;;;18.93;13.13;;;19.20;64.60;;;;;;4967382;28;20245;-88
2021/07/25 05:59:59;;;;;;;21.40;14.67;;;19.20;63.30;;;;;;4967019;28;20193;-87
2021/07/25 06:02:25;;;;;;;24.73;13.83;;;19.20;64.60;;;;;;4968575;28;20292;-88
2021/07/25 06:04:51;;;;;;;19.90;13.20;;;19.20;65.00;;;;;;4972449;28;20707;-89
2021/07/25 06:07:18;;;;;;;22.33;13.53;;;19.20;67.30;;;;;;4981612;28;20191;-87
2021/07/25 06:09:43;;;;;;;21.57;13.27;;;19.30;65.30;;;;;;4970943;28;20187;-86
2021/07/25 06:12:13;;;;;;;26.23;14.50;;;19.30;64.60;;;;;;4970088;28;20229;-89
2021/07/25 06:14:38;;;;;;;25.03;14.93;;;19.30;65.10;;;;;;4971115;28;20249;-87
2021/07/25 06:17:04;;;;;;;23.93;14.50;;;19.20;65.70;;;;;;4962909;28;20236;-87
2021/07/25 06:19:29;;;;;;;23.07;14.73;;;19.20;66.20;;;;;;4968858;28;20196;-87
2021/07/25 06:21:55;;;;;;;23.40;15.20;;;19.20;68.40;;;;;;4973763;28;20193;-86
2021/07/25 06:24:21;;;;;;;24.47;14.80;;;19.30;66.80;;;;;;4968836;28;20253;-90
2021/07/25 06:26:47;;;;;;;22.97;12.67;;;19.30;65.20;;;;;;4963657;28;20626;-89
2021/07/25 06:29:13;;;;;;;21.30;13.87;;;;;;;;;;4967959;28;20210;-89
2021/07/25 06:31:39;;;;;;;22.63;13.40;;;19.30;66.20;;;;;;4984841;28;20256;-88
2021/07/25 06:34:04;;;;;;;27.30;15.27;;;19.40;66.10;;;;;;4971701;28;20202;-88
2021/07/25 06:36:30;;;;;;;21.83;13.13;;;19.40;65.90;;;;;;4973810;28;20209;-87
2021/07/25 06:38:56;;;;;;;23.90;13.80;;;19.40;65.70;;;;;;4972022;28;20181;-88
2021/07/25 06:41:21;;;;;;;19.97;12.83;;;19.50;65.70;;;;;;4965788;28;20195;-86
2021/07/25 06:43:47;;;;;;;19.77;12.70;;;19.50;64.00;;;;;;4979240;28;20216;-87
2021/07/25 06:46:12;;;;;;;18.30;11.93;;;19.60;63.70;;;;;;4969657;28;20340;-88
2021/07/25 06:48:39;;;;;;;19.57;12.47;;;19.70;60.00;;;;;;4962912;28;20275;-87
2021/07/25 06:51:05;;;;;;;18.37;12.57;;;19.80;59.10;;;;;;4963500;28;20252;-90
2021/07/25 06:53:32;;;;;;;19.57;11.57;;;20.00;55.00;;;;;;4984068;28;20239;-91
2021/07/25 06:56:03;;;;;;;16.23;10.47;;;20.00;54.70;;;;;;4992088;28;20195;-91
2021/07/25 06:58:29;;;;;;;17.60;10.83;;;20.10;55.80;;;;;;4972301;28;20272;-90
2021/07/25 07:00:55;;;;;;;16.80;11.27;;;20.10;52.10;;;;;;4959725;28;20259;-90
2021/07/25 07:03:20;;;;;;;15.33;9.73;;;20.10;53.80;;;;;;4970524;28;20249;-89
2021/07/25 07:05:46;;;;;;;15.83;9.23;;;20.10;54.00;;;;;;4975717;28;20585;-89
2021/07/25 07:08:13;;;;;;;14.13;10.70;;;20.30;50.40;;;;;;4974028;28;20208;-87
2021/07/25 07:10:42;;;;;;;19.10;10.03;;;20.20;48.80;;;;;;4973011;28;20248;-87
2021/07/25 07:13:11;;;;;;;15.23;10.47;;;20.00;51.60;;;;;;4979221;28;20247;-88
2021/07/25 07:15:42;;;;;;;16.17;10.70;;;20.00;52.20;;;;;;4973588;28;20195;-90
2021/07/25 07:18:08;;;;;;;14.63;9.80;;;;;;;;;;4982292;28;20198;-90
2021/07/25 07:20:34;;;;;;;15.27;10.17;;;;;;;;;;4990795;28;20196;-88
2021/07/25 07:23:03;;;;;;;15.70;10.07;;;20.80;44.80;;;;;;4980434;28;20286;-89
2021/07/25 07:25:44;;;;;;;12.53;8.77;;;20.80;43.00;;;;;;4971114;28;20204;-89
2021/07/25 07:28:11;;;;;;;13.27;8.27;;;20.80;43.70;;;;;;4987805;28;20222;-89
2021/07/25 07:30:38;;;;;;;10.73;9.10;;;20.70;41.80;;;;;;4971930;28;20223;-88
2021/07/25 07:33:21;;;;;;;10.53;8.67;;;20.60;44.40;;;;;;4980242;28;20190;-87
2021/07/25 07:35:47;;;;;;;11.00;8.53;;;;;;;;;;4970708;28;20194;-87
2021/07/25 07:38:14;;;;;;;10.27;8.37;;;20.60;43.30;;;;;;4971511;28;20261;-87
2021/07/25 07:40:42;;;;;;;9.37;8.37;;;20.70;42.90;;;;;;4973486;28;20194;-88
2021/07/25 07:43:10;;;;;;;8.70;7.50;;;20.80;41.60;;;;;;4979429;28;20199;-88
2021/07/25 07:45:37;;;;;;;9.23;7.87;;;20.90;39.40;;;;;;4971113;28;20699;-88
2021/07/25 07:48:04;;;;;;;10.73;7.87;;;20.90;39.80;;;;;;4981933;28;20184;-88
2021/07/25 07:50:29;;;;;;;8.53;6.50;;;21.10;39.90;;;;;;4963540;28;20665;-88
2021/07/25 07:52:57;;;;;;;8.73;6.63;;;21.30;36.20;;;;;;4988795;28;20198;-87
2021/07/25 07:55:23;;;;;;;7.70;6.90;;;;;;;;;;4970194;28;20246;-88
2021/07/25 07:57:49;;;;;;;7.93;7.03;;;21.50;34.70;;;;;;4982951;28;20193;-87
2021/07/25 08:00:15;;;;;;;7.50;6.80;;;24.10;35.50;;;;;;4975919;28;20336;-88
2021/07/25 08:02:41;;;;;;;9.37;6.83;;;;;;;;;;4974755;28;20200;-87
2021/07/25 08:05:08;;;;;;;7.67;6.57;;;22.10;29.20;;;;;;4990228;28;20287;-88
2021/07/25 08:07:37;;;;;;;8.63;6.70;;;22.10;28.20;;;;;;4970133;28;20257;-88
2021/07/25 08:10:04;;;;;;;6.90;6.20;;;22.10;28.90;;;;;;4954678;28;20184;-87
2021/07/25 08:12:30;;;;;;;7.30;6.07;;;22.20;28.60;;;;;;4970324;28;20194;-88
2021/07/25 08:14:56;;;;;;;7.40;6.60;;;;;;;;;;4971920;28;20269;-87
2021/07/25 08:17:22;;;;;;;7.10;5.83;;;;;;;;;;4990445;28;20203;-87
2021/07/25 08:19:48;;;;;;;8.77;5.60;;;22.10;26.50;;;;;;4986025;28;20539;-88
2021/07/25 08:22:13;;;;;;;8.33;5.83;;;22.20;28.30;;;;;;4999145;28;20198;-88
2021/07/25 08:24:40;;;;;;;5.77;5.20;;;22.60;23.30;;;;;;4981488;28;20193;-87
2021/07/25 08:27:07;;;;;;;6.77;5.37;;;22.70;22.90;;;;;;4966710;28;20194;-88
2021/07/25 08:29:33;;;;;;;8.37;6.17;;;;;;;;;;4989071;28;20268;-88
2021/07/25 08:31:59;;;;;;;7.83;5.70;;;23.50;16.70;;;;;;4990278;28;20268;-87
2021/07/25 08:34:25;;;;;;;7.90;5.80;;;;;;;;;;4972640;28;20239;-87
2021/07/25 08:36:52;;;;;;;7.60;5.60;;;23.50;18.00;;;;;;4984999;28;20187;-87
2021/07/25 08:39:18;;;;;;;6.13;5.53;;;23.40;16.60;;;;;;4987717;28;20234;-87
2021/07/25 08:42:05;;;;;;;8.07;5.87;;;23.30;18.70;;;;;;4976926;28;20190;-86
2021/07/25 08:44:48;;;;;;;7.03;5.30;;;23.60;12.80;;;;;;4987204;28;20275;-87
2021/07/25 08:47:26;;;;;;;6.90;5.23;;;23.40;14.20;;;;;;4986207;28;20199;-89
2021/07/25 08:50:09;;;;;;;7.93;5.50;;;23.40;14.30;;;;;;4992427;28;20189;-87
2021/07/25 08:52:37;;;;;;;5.30;4.77;;;23.10;16.60;;;;;;4985922;28;20294;-87
2021/07/25 08:55:10;;;;;;;8.70;5.50;;;23.10;17.30;;;;;;4977175;28;20290;-87
2021/07/25 08:57:39;;;;;;;6.27;5.10;;;23.10;14.60;;;;;;4967203;28;20241;-82
2021/07/25 09:00:10;;;;;;;6.40;4.80;;;23.10;14.60;;;;;;4965245;28;20199;-84
2021/07/25 09:02:38;;;;;;;7.37;5.17;;;22.70;16.00;;;;;;4973012;28;20195;-85
2021/07/25 09:05:05;;;;;;;5.70;4.53;;;22.80;15.40;;;;;;4974563;28;20212;-85
2021/07/25 09:07:32;;;;;;;7.73;5.67;;;23.00;15.10;;;;;;4988256;28;20191;-84
2021/07/25 09:10:23;;;;;;;5.43;4.93;;;23.00;15.60;;;;;;4979618;28;20190;-82
2021/07/25 09:12:50;;;;;;;5.77;4.90;;;23.30;14.70;;;;;;4985234;28;20202;-84
2021/07/25 09:15:26;;;;;;;9.97;5.53;;;23.20;16.30;;;;;;4965146;28;20804;-85
2021/07/25 09:17:55;;;;;;;4.67;4.23;;;23.20;17.20;;;;;;4987171;28;20281;-85
2021/07/25 09:20:28;;;;;;;7.00;4.73;;;23.30;11.20;;;;;;4976544;28;21186;-83
2021/07/25 09:23:07;;;;;;;7.03;4.93;;;23.40;12.40;;;;;;4959334;28;20231;-85
2021/07/25 09:25:37;;;;;;;6.00;4.40;;;23.80;11.20;;;;;;4957809;28;20195;-83
2021/07/25 09:28:03;;;;;;;5.50;4.53;;;;;;;;;;4990298;28;20210;-85
2021/07/25 09:30:30;;;;;;;5.00;3.90;;;24.00;7.80;;;;;;4961610;28;20232;-84
2021/07/25 09:32:56;;;;;;;5.10;3.83;;;24.20;8.50;;;;;;4961612;28;20199;-82
2021/07/25 09:35:24;;;;;;;6.97;4.63;;;24.20;6.50;;;;;;4968797;28;20199;-84
2021/07/25 09:37:51;;;;;;;6.33;4.07;;;24.10;6.10;;;;;;4972969;28;20271;-85
2021/07/25 09:40:27;;;;;;;5.20;3.93;;;24.10;6.60;;;;;;4965955;28;20227;-87
2021/07/25 09:43:19;;;;;;;4.67;3.70;;;24.00;4.60;;;;;;4971794;28;20191;-88
2021/07/25 09:45:53;;;;;;;4.27;3.87;;;24.00;5.60;;;;;;4976220;28;20207;-84
2021/07/25 09:48:35;;;;;;;4.43;3.80;;;24.30;6.10;;;;;;4966378;28;20198;-83
2021/07/25 09:51:21;;;;;;;4.10;3.60;;;24.70;1.50;;;;;;4984291;28;20216;-84
2021/07/25 09:53:51;;;;;;;4.23;3.80;;;24.70;2.60;;;;;;4974928;28;20568;-83
2021/07/25 09:56:23;;;;;;;3.73;3.33;;;24.80;1.30;;;;;;4972782;28;20682;-84
2021/07/25 09:58:50;;;;;;;5.23;4.07;;;24.80;1.00;;;;;;4971672;28;20222;-83
2021/07/25 10:01:35;;;;;;;4.00;3.60;;;25.00;1.00;;;;;;4986360;28;20194;-83
2021/07/25 10:04:21;;;;;;;6.13;3.83;;;24.80;1.00;;;;;;4971325;28;20239;-86
2021/07/25 10:06:48;;;;;;;3.87;3.40;;;;;;;;;;4987325;28;20556;-86
2021/07/25 10:09:19;;;;;;;3.70;3.40;;;24.70;1.00;;;;;;4987911;28;20427;-84
2021/07/25 10:12:04;;;;;;;4.33;3.60;;;24.70;1.00;;;;;;4967900;28;20678;-85
2021/07/25 10:14:34;;;;;;;7.20;3.87;;;24.60;1.00;;;;;;4967026;28;20296;-85
2021/07/25 10:17:01;;;;;;;3.60;3.30;;;24.70;1.00;;;;;;4966974;28;20243;-85
2021/07/25 10:19:37;;;;;;;4.82;3.50;;;25.00;1.00;;;;;;4990549;28;20186;-85
2021/07/25 10:22:08;;;;;;;3.58;2.80;;;25.20;1.00;;;;;;4965610;28;20736;-85
2021/07/25 10:24:34;;;;;;;4.60;4.07;;;25.50;1.00;;;;;;4969645;28;20749;-85
2021/07/25 10:27:01;;;;;;;3.50;3.20;;;25.60;1.00;;;;;;4964189;28;20251;-84
2021/07/25 10:29:29;;;;;;;4.63;3.70;;;25.80;1.00;;;;;;4964557;28;20203;-84
2021/07/25 10:31:55;;;;;;;4.13;3.17;;;25.90;1.00;;;;;;4968752;28;20224;-85
2021/07/25 10:34:24;;;;;;;3.33;2.97;;;26.00;1.00;;;;;;4965642;28;20270;-86
2021/07/25 10:36:51;;;;;;;5.57;3.35;;;25.80;1.00;;;;;;4966217;28;20189;-86
2021/07/25 10:39:18;;;;;;;4.32;2.97;;;25.90;1.00;;;;;;4972396;28;20248;-87
2021/07/25 10:41:48;;;;;;;3.97;2.92;;;26.00;1.00;;;;;;4990835;28;20189;-85
2021/07/25 10:44:16;;;;;;;4.85;3.38;;;26.00;1.00;;;;;;4973677;28;20221;-85
2021/07/25 10:46:42;;;;;;;4.45;3.67;;;26.00;1.00;;;;;;4967724;28;20195;-88
2021/07/25 10:49:10;;;;;;;4.20;3.10;;;26.10;1.00;;;;;;4969195;28;20298;-87
2021/07/25 10:51:53;;;;;;;3.80;3.20;;;26.20;1.00;;;;;;4975615;28;20215;-87
2021/07/25 10:54:22;;;;;;;3.70;3.00;;;26.30;1.00;;;;;;4970615;28;20656;-88
2021/07/25 10:57:02;;;;;;;3.70;3.28;;;26.40;1.00;;;;;;4964820;28;20280;-87
2021/07/25 10:59:46;;;;;;;3.63;3.30;;;26.30;1.00;;;;;;4979957;28;20234;-86
2021/07/25 11:02:22;;;;;;;3.00;2.70;;;26.50;1.00;;;;;;4985982;28;20200;-86
2021/07/25 11:04:50;;;;;;;5.25;2.90;;;26.60;1.00;;;;;;4969142;28;20247;-86
2021/07/25 11:07:22;;;;;;;4.10;3.08;;;26.80;1.00;;;;;;4980987;28;20195;-85
2021/07/25 11:09:58;;;;;;;4.32;2.88;;;26.80;1.00;;;;;;4986713;28;20200;-85
2021/07/25 11:12:24;;;;;;;3.50;2.67;;;27.10;1.00;;;;;;4987213;28;20215;-86
2021/07/25 11:14:57;;;;;;;4.00;2.83;;;27.30;1.00;;;;;;4974548;28;20215;-85
2021/07/25 11:17:50;;;;;;;4.07;2.42;;;27.10;1.00;;;;;;4985360;28;20185;-86
2021/07/25 11:20:39;;;;;;;3.15;2.70;;;27.10;1.00;;;;;;4966366;28;20200;-86
2021/07/25 11:23:19;;;;;;;4.03;2.92;;;27.20;1.00;;;;;;4965769;28;20260;-86
2021/07/25 11:25:46;;;;;;;3.05;2.60;;;27.40;1.00;;;;;;4980568;28;20184;-86
2021/07/25 11:28:38;;;;;;;2.95;2.35;;;27.60;1.00;;;;;;4969851;28;20193;-87
2021/07/25 11:31:08;;;;;;;4.50;2.75;;;27.80;1.00;;;;;;4972353;28;20223;-86
2021/07/25 11:33:40;;;;;;;2.45;2.25;;;27.80;1.00;;;;;;4968568;28;20185;-86
2021/07/25 11:36:07;;;;;;;2.95;2.40;;;28.00;1.00;;;;;;4973931;28;20193;-86
2021/07/25 11:38:34;;;;;;;3.10;2.70;;;28.30;1.00;;;;;;4970216;28;20270;-86
2021/07/25 11:41:01;;;;;;;7.28;2.95;;;28.40;1.00;;;;;;4967138;28;20202;-86
2021/07/25 11:43:26;;;;;;;2.72;2.40;;;28.50;1.00;;;;;;4989109;28;20196;-85
2021/07/25 11:45:52;;;;;;;3.90;2.50;;;;;;;;;;4986053;28;20251;-86
2021/07/25 11:48:19;;;;;;;2.90;2.60;;;28.80;1.00;;;;;;4985880;28;20192;-86
2021/07/25 11:50:45;;;;;;;2.78;2.30;;;29.90;1.00;;;;;;4986307;28;20217;-88
2021/07/25 11:53:11;;;;;;;3.17;2.40;;;30.90;1.00;;;;;;4969070;28;20196;-87
2021/07/25 11:55:36;;;;;;;2.63;2.42;;;30.90;1.00;;;;;;4988462;28;20573;-85
2021/07/25 11:58:12;;;;;;;4.00;2.33;;;30.60;1.00;;;;;;4967490;28;20205;-85
2021/07/25 12:00:38;;;;;;;1.75;1.65;;;;;;;;;;4976893;28;20194;-85
2021/07/25 12:03:04;;;;;;;4.55;1.90;;;;;;;;;;4973374;28;20696;-85
2021/07/25 12:05:31;;;;;;;3.63;2.25;;;;;;;;;;4964511;28;20224;-85
2021/07/25 12:08:10;;;;;;;2.65;2.10;;;33.80;1.00;;;;;;4967311;28;20264;-84
2021/07/25 12:10:36;;;;;;;3.95;2.40;;;34.70;1.00;;;;;;4976676;28;20220;-85
2021/07/25 12:13:06;;;;;;;1.70;1.60;;;34.70;1.00;;;;;;4966581;28;20193;-86
2021/07/25 12:15:32;;;;;;;2.83;2.20;;;35.40;1.00;;;;;;4969492;28;20197;-85
2021/07/25 12:17:58;;;;;;;2.83;2.10;;;35.40;1.00;;;;;;4970116;28;20193;-86
2021/07/25 12:20:27;;;;;;;6.28;2.38;;;35.10;1.00;;;;;;4971011;28;20192;-85
2021/07/25 12:23:03;;;;;;;2.53;2.00;;;35.10;1.00;;;;;;4985938;28;20193;-84
2021/07/25 12:25:51;;;;;;;2.30;1.70;;;36.00;1.00;;;;;;4969344;28;20577;-85
2021/07/25 12:28:22;;;;;;;2.30;1.80;;;37.40;1.00;;;;;;4990654;28;20200;-85
2021/07/25 12:30:58;;;;;;;2.05;1.85;;;37.30;1.00;;;;;;4954241;28;20268;-86
2021/07/25 12:33:27;;;;;;;3.33;1.90;;;37.70;1.00;;;;;;4969913;28;20213;-85
2021/07/25 12:35:52;;;;;;;4.00;2.13;;;38.00;1.00;;;;;;4988875;28;20196;-85
2021/07/25 12:38:20;;;;;;;2.83;1.60;;;37.70;1.00;;;;;;4970236;28;20204;-86
2021/07/25 12:40:59;;;;;;;2.92;1.85;;;37.90;1.00;;;;;;4986636;28;20199;-86
2021/07/25 12:43:27;;;;;;;4.75;2.00;;;38.40;1.00;;;;;;4957065;28;20207;-86
2021/07/25 12:46:02;;;;;;;2.63;1.90;;;39.10;1.00;;;;;;4973498;28;20236;-86
2021/07/25 12:48:32;;;;;;;2.30;2.13;;;39.00;1.00;;;;;;4962851;28;20276;-86
2021/07/25 12:53:51;;;;;;;2.60;2.05;;;39.10;1.00;;;;;;4979041;28;20184;-86
2021/07/25 12:56:25;;;;;;;3.78;1.85;;;40.20;1.00;;;;;;4970020;28;20192;-86
2021/07/25 12:58:55;;;;;;;2.45;1.80;;;40.10;1.00;;;;;;4981350;28;20196;-85
2021/07/25 13:04:04;;;;;;;3.80;2.15;;;41.00;1.00;;;;;;4985251;28;20242;-85
2021/07/25 13:06:44;;;;;;;2.28;2.05;;;39.60;1.00;;;;;;4966763;28;20657;-85